createdAt,value
2018-02-09T00:00:29.600Z,32.40
2018-02-09T00:02:57.091Z,32.97
2018-02-09T00:05:25.336Z,33.93
2018-02-09T00:07:52.843Z,33.13
2018-02-09T00:10:20.303Z,32.67
2018-02-09T00:12:47.912Z,33.90
2018-02-09T00:15:15.426Z,33.60
2018-02-09T00:17:43.685Z,35.43
2018-02-09T00:20:11.155Z,35.57
2018-02-09T00:22:50.410Z,37.80
2018-02-09T00:25:18.653Z,33.47
2018-02-09T00:27:46.159Z,34.53
2018-02-09T00:30:13.609Z,35.70
2018-02-09T00:32:41.845Z,34.83
2018-02-09T00:35:09.315Z,35.20
2018-02-09T00:37:36.779Z,34.97
2018-02-09T00:40:04.285Z,35.67
2018-02-09T00:42:32.498Z,35.30
2018-02-09T00:44:59.975Z,35.10
2018-02-09T00:47:27.427Z,35.03
2018-02-09T00:49:54.911Z,36.60
2018-02-09T00:52:23.150Z,38.43
2018-02-09T00:54:50.635Z,36.43
2018-02-09T00:57:18.895Z,35.37
2018-02-09T00:59:46.362Z,36.30
2018-02-09T01:02:13.819Z,34.80
2018-02-09T01:04:42.074Z,38.43
2018-02-09T01:07:09.547Z,36.20
2018-02-09T01:09:37.065Z,37.30
2018-02-09T01:12:04.550Z,37.70
2018-02-09T01:14:32.030Z,36.40
2018-02-09T01:17:00.323Z,38.40
2018-02-09T01:19:28.581Z,37.40
2018-02-09T01:21:56.040Z,38.37
2018-02-09T01:24:23.586Z,35.90
2018-02-09T01:26:51.050Z,36.67
2018-02-09T01:29:18.571Z,35.43
2018-02-09T01:31:46.048Z,34.60
2018-02-09T01:34:13.531Z,36.93
2018-02-09T01:36:40.987Z,37.07
2018-02-09T01:39:08.539Z,38.70
2018-02-09T01:41:36.018Z,38.20
2018-02-09T01:44:03.495Z,37.70
2018-02-09T01:46:31.743Z,37.20
2018-02-09T01:48:59.208Z,37.80
2018-02-09T01:51:26.711Z,38.13
2018-02-09T01:53:54.180Z,38.53
2018-02-09T01:56:21.652Z,38.60
2018-02-09T01:58:49.138Z,38.50
2018-02-09T02:01:17.391Z,38.17
2018-02-09T02:03:44.872Z,37.97
2018-02-09T02:06:12.382Z,39.10
2018-02-09T02:08:39.861Z,39.23
2018-02-09T02:11:07.330Z,39.63
2018-02-09T02:13:34.810Z,40.20
2018-02-09T02:16:02.248Z,39.30
2018-02-09T02:18:29.718Z,42.20
2018-02-09T02:20:57.178Z,39.37
2018-02-09T02:23:24.691Z,40.70
2018-02-09T02:25:52.220Z,38.83
2018-02-09T02:28:20.524Z,39.70
2018-02-09T02:30:47.991Z,40.47
2018-02-09T02:33:15.458Z,38.13
2018-02-09T02:35:42.923Z,40.13
2018-02-09T02:38:10.387Z,40.00
2018-02-09T02:40:37.871Z,39.97
2018-02-09T02:43:05.308Z,38.80
2018-02-09T02:45:32.785Z,39.97
2018-02-09T02:48:00.273Z,39.10
2018-02-09T02:50:27.750Z,40.87
2018-02-09T02:52:55.235Z,37.63
2018-02-09T02:55:22.702Z,40.83
2018-02-09T02:57:50.184Z,40.70
2018-02-09T03:00:18.471Z,38.23
2018-02-09T03:02:46.728Z,39.27
2018-02-09T03:05:14.223Z,38.70
2018-02-09T03:07:41.704Z,40.20
2018-02-09T03:10:09.182Z,40.10
2018-02-09T03:12:36.636Z,39.30
2018-02-09T03:15:04.097Z,39.03
2018-02-09T03:17:31.552Z,41.20
2018-02-09T03:19:59.035Z,40.70
2018-02-09T03:22:26.515Z,40.27
2018-02-09T03:24:54.763Z,39.10
2018-02-09T03:27:22.226Z,40.87
2018-02-09T03:29:49.732Z,42.47
2018-02-09T03:32:17.207Z,38.37
2018-02-09T03:34:44.678Z,42.40
2018-02-09T03:37:12.142Z,39.90
2018-02-09T03:39:39.598Z,39.43
2018-02-09T03:42:07.069Z,39.03
2018-02-09T03:44:34.624Z,41.67
2018-02-09T03:47:02.135Z,40.63
2018-02-09T03:49:29.622Z,39.47
2018-02-09T03:51:57.832Z,40.57
2018-02-09T03:54:25.311Z,41.43
2018-02-09T03:56:53.576Z,41.77
2018-02-09T03:59:21.842Z,40.87
2018-02-09T04:01:49.295Z,42.20
2018-02-09T04:04:16.773Z,42.63
2018-02-09T04:06:44.238Z,40.20
2018-02-09T04:09:12.460Z,42.40
2018-02-09T04:11:39.956Z,40.67
2018-02-09T04:14:07.403Z,40.10
2018-02-09T04:16:34.886Z,42.60
2018-02-09T04:19:03.148Z,42.23
2018-02-09T04:21:30.593Z,41.00
2018-02-09T04:23:58.270Z,40.17
2018-02-09T04:26:25.725Z,40.00
2018-02-09T04:28:53.182Z,41.43
2018-02-09T04:31:20.693Z,41.87
2018-02-09T04:33:48.127Z,38.47
2018-02-09T04:36:16.356Z,39.87
2018-02-09T04:38:43.842Z,40.13
2018-02-09T04:41:11.304Z,41.33
2018-02-09T04:43:38.759Z,37.93
2018-02-09T04:46:06.232Z,40.57
2018-02-09T04:48:34.468Z,39.60
2018-02-09T04:51:01.934Z,40.17
2018-02-09T04:53:30.342Z,39.30
2018-02-09T04:55:58.618Z,36.67
2018-02-09T04:58:26.865Z,39.03
2018-02-09T05:00:54.334Z,36.47
2018-02-09T05:03:21.795Z,37.57
2018-02-09T05:05:49.276Z,37.77
2018-02-09T05:08:17.502Z,36.40
2018-02-09T05:10:44.987Z,37.40
2018-02-09T05:13:12.464Z,37.70
2018-02-09T05:15:40.704Z,35.70
2018-02-09T05:18:08.233Z,39.40
2018-02-09T05:20:35.719Z,37.43
2018-02-09T05:23:03.194Z,37.50
2018-02-09T05:25:30.752Z,38.13
2018-02-09T05:27:58.194Z,37.27
2018-02-09T05:30:25.679Z,38.63
2018-02-09T05:32:53.123Z,37.00
2018-02-09T05:35:20.578Z,36.60
2018-02-09T05:37:48.055Z,35.67
2018-02-09T05:40:15.508Z,37.27
2018-02-09T05:42:43.025Z,38.53
2018-02-09T05:45:10.479Z,36.53
2018-02-09T05:47:37.966Z,36.17
2018-02-09T05:50:05.427Z,36.00
2018-02-09T05:52:32.908Z,43.63
2018-02-09T05:55:00.384Z,38.33
2018-02-09T05:57:27.871Z,36.47
2018-02-09T05:59:55.335Z,36.10
2018-02-09T06:02:22.810Z,36.33
2018-02-09T06:04:50.255Z,36.33
2018-02-09T06:07:17.738Z,38.13
2018-02-09T06:09:45.228Z,35.73
2018-02-09T06:12:13.486Z,35.03
2018-02-09T06:14:40.971Z,34.50
2018-02-09T06:17:09.220Z,39.33
2018-02-09T06:19:36.683Z,36.47
2018-02-09T06:22:04.144Z,35.70
2018-02-09T06:24:31.615Z,34.80
2018-02-09T06:26:59.895Z,37.53
2018-02-09T06:29:28.147Z,37.47
2018-02-09T06:31:55.616Z,38.03
2018-02-09T06:34:23.079Z,37.23
2018-02-09T06:36:51.352Z,34.83
2018-02-09T06:39:18.803Z,37.50
2018-02-09T06:41:46.288Z,35.57
2018-02-09T06:44:13.845Z,36.70
2018-02-09T06:46:42.095Z,36.80
2018-02-09T06:49:09.561Z,36.77
2018-02-09T06:51:37.027Z,34.87
2018-02-09T06:54:05.241Z,37.60
2018-02-09T06:56:32.699Z,38.67
2018-02-09T06:59:00.168Z,34.13
2018-02-09T07:01:27.667Z,36.07
2018-02-09T07:03:55.125Z,37.30
2018-02-09T07:06:22.576Z,35.80
2018-02-09T07:08:50.191Z,37.80
2018-02-09T07:11:17.715Z,35.07
2018-02-09T07:13:46.161Z,36.27
2018-02-09T07:16:13.643Z,36.17
2018-02-09T07:18:41.090Z,37.50
2018-02-09T07:21:08.555Z,35.00
2018-02-09T07:23:36.011Z,36.60
2018-02-09T07:26:03.473Z,34.63
2018-02-09T07:28:30.926Z,37.67
2018-02-09T07:30:58.386Z,32.57
2018-02-09T07:33:25.855Z,35.47
2018-02-09T07:35:53.302Z,34.47
2018-02-09T07:38:20.871Z,37.07
2018-02-09T07:40:48.319Z,36.20
2018-02-09T07:43:15.795Z,37.20
2018-02-09T07:45:44.026Z,37.20
2018-02-09T07:48:11.475Z,33.17
2018-02-09T07:50:38.948Z,35.87
2018-02-09T07:53:06.434Z,37.53
2018-02-09T07:55:33.901Z,36.67
2018-02-09T07:58:01.367Z,35.67
2018-02-09T08:00:29.611Z,32.57
2018-02-09T08:02:57.067Z,38.47
2018-02-09T08:05:24.565Z,35.77
2018-02-09T08:07:52.803Z,35.90
2018-02-09T08:10:20.277Z,36.80
2018-02-09T08:12:47.735Z,38.10
2018-02-09T08:15:15.198Z,37.20
2018-02-09T08:17:42.653Z,36.90
2018-02-09T08:20:10.124Z,37.47
2018-02-09T08:22:38.359Z,36.83
2018-02-09T08:25:05.838Z,38.27
2018-02-09T08:27:33.311Z,35.47
2018-02-09T08:30:01.568Z,38.70
2018-02-09T08:32:29.023Z,37.63
2018-02-09T08:34:56.508Z,39.13
2018-02-09T08:37:24.727Z,38.20
2018-02-09T08:39:52.185Z,39.83
2018-02-09T08:42:19.671Z,38.47
2018-02-09T08:44:47.156Z,38.20
2018-02-09T08:47:15.376Z,37.60
2018-02-09T08:49:42.864Z,36.03
2018-02-09T08:52:10.344Z,36.33
2018-02-09T08:54:37.827Z,36.90
2018-02-09T08:57:05.315Z,36.00
2018-02-09T08:59:32.770Z,36.13
2018-02-09T09:02:00.240Z,36.73
2018-02-09T09:04:27.690Z,35.30
2018-02-09T09:06:55.187Z,37.80
2018-02-09T09:09:22.656Z,36.83
2018-02-09T09:11:50.104Z,35.43
2018-02-09T09:14:17.595Z,36.07
2018-02-09T09:16:45.066Z,37.17
2018-02-09T09:19:12.633Z,35.43
2018-02-09T09:21:40.107Z,35.20
2018-02-09T09:24:07.578Z,35.43
2018-02-09T09:26:35.044Z,35.10
2018-02-09T09:29:02.521Z,33.70
2018-02-09T09:31:29.980Z,33.33
2018-02-09T09:33:57.653Z,35.97
2018-02-09T09:36:25.886Z,34.17
2018-02-09T09:38:53.355Z,34.57
2018-02-09T09:41:20.830Z,34.83
2018-02-09T09:43:48.291Z,34.37
2018-02-09T09:46:15.742Z,37.80
2018-02-09T09:48:43.223Z,35.43
2018-02-09T09:51:11.443Z,35.60
2018-02-09T09:53:38.926Z,35.97
2018-02-09T09:56:06.372Z,34.20
2018-02-09T09:58:33.859Z,35.63
2018-02-09T10:01:01.324Z,33.27
2018-02-09T10:03:29.538Z,34.37
2018-02-09T10:05:57.012Z,35.83
2018-02-09T10:08:24.463Z,34.40
2018-02-09T10:10:51.952Z,33.77
2018-02-09T10:13:19.579Z,34.30
2018-02-09T10:15:47.119Z,30.73
2018-02-09T10:18:15.338Z,34.87
2018-02-09T10:20:42.822Z,33.73
2018-02-09T10:23:10.484Z,36.00
2018-02-09T10:25:37.974Z,36.40
2018-02-09T10:28:05.398Z,35.93
2018-02-09T10:30:32.855Z,36.50
2018-02-09T10:33:00.332Z,34.63
2018-02-09T10:35:28.591Z,35.37
2018-02-09T10:37:56.063Z,36.23
2018-02-09T10:40:24.279Z,35.60
2018-02-09T10:42:51.758Z,32.60
2018-02-09T10:45:19.230Z,34.87
2018-02-09T10:47:46.734Z,33.37
2018-02-09T10:50:15.247Z,33.47
2018-02-09T10:52:42.745Z,36.47
2018-02-09T10:55:10.246Z,35.07
2018-02-09T10:57:37.724Z,37.27
2018-02-09T11:00:05.211Z,34.50
2018-02-09T11:02:32.683Z,36.03
2018-02-09T11:05:00.135Z,37.90
2018-02-09T11:07:27.599Z,33.70
2018-02-09T11:09:55.314Z,36.73
2018-02-09T11:12:22.769Z,36.77
2018-02-09T11:14:50.479Z,37.60
2018-02-09T11:17:18.205Z,36.70
2018-02-09T11:19:45.615Z,36.47
2018-02-09T11:22:13.855Z,35.50
2018-02-09T11:24:41.323Z,37.20
2018-02-09T11:27:08.872Z,35.43
2018-02-09T11:29:36.278Z,35.87
2018-02-09T11:32:04.546Z,36.87
2018-02-09T11:34:32.101Z,37.07
2018-02-09T11:36:59.546Z,35.17
2018-02-09T11:39:27.070Z,36.00
2018-02-09T11:41:54.545Z,40.13
2018-02-09T11:44:22.030Z,35.77
2018-02-09T11:46:49.514Z,37.10
2018-02-09T11:49:17.357Z,38.03
2018-02-09T11:51:44.909Z,37.97
2018-02-09T11:54:13.480Z,35.00
2018-02-09T11:56:40.953Z,35.97
2018-02-09T11:59:08.421Z,34.93
2018-02-09T12:01:36.698Z,38.77
2018-02-09T12:04:04.719Z,34.40
2018-02-09T12:06:32.175Z,31.43
2018-02-09T12:08:59.975Z,34.90
2018-02-09T12:11:27.548Z,36.50
2018-02-09T12:13:55.927Z,35.77
2018-02-09T12:16:23.712Z,35.23
2018-02-09T12:18:51.919Z,33.13
2018-02-09T12:21:19.411Z,39.07
2018-02-09T12:23:47.374Z,37.07
2018-02-09T12:26:15.263Z,34.97
2018-02-09T12:28:42.774Z,35.97
2018-02-09T12:31:10.354Z,35.40
2018-02-09T12:33:37.896Z,35.00
2018-02-09T12:36:05.495Z,34.00
2018-02-09T12:38:32.965Z,35.80
2018-02-09T12:41:00.423Z,35.60
2018-02-09T12:43:28.683Z,35.93
2018-02-09T12:45:56.151Z,34.10
2018-02-09T12:48:23.610Z,35.73
2018-02-09T12:50:51.246Z,35.70
2018-02-09T12:53:18.715Z,35.47
2018-02-09T12:55:46.175Z,35.43
2018-02-09T12:58:13.647Z,37.53
2018-02-09T13:00:41.138Z,30.90
2018-02-09T13:03:09.343Z,33.23
2018-02-09T13:05:36.819Z,43.07
2018-02-09T13:08:04.314Z,36.27
2018-02-09T13:10:32.591Z,35.83
2018-02-09T13:13:07.396Z,34.80
2018-02-09T13:15:34.863Z,35.50
2018-02-09T13:18:02.414Z,36.90
2018-02-09T13:20:30.091Z,30.13
2018-02-09T13:23:09.620Z,27.67
2018-02-09T13:25:37.128Z,33.83
2018-02-09T13:28:04.630Z,36.60
2018-02-09T13:30:32.109Z,33.60
2018-02-09T13:33:11.160Z,34.10
2018-02-09T13:35:39.401Z,34.90
2018-02-09T13:38:06.861Z,34.93
2018-02-09T13:40:34.310Z,36.10
2018-02-09T13:43:01.799Z,36.63
2018-02-09T13:45:30.091Z,33.67
2018-02-09T13:47:58.388Z,33.27
2018-02-09T13:50:25.879Z,33.33
2018-02-09T13:52:53.349Z,34.50
2018-02-09T13:55:20.885Z,34.73
2018-02-09T13:57:48.333Z,33.17
2018-02-09T14:00:15.817Z,34.10
2018-02-09T14:02:43.312Z,35.13
2018-02-09T14:05:11.585Z,33.43
2018-02-09T14:07:39.808Z,33.27
2018-02-09T14:10:07.332Z,32.43
2018-02-09T14:12:35.681Z,30.70
2018-02-09T14:15:03.207Z,30.17
2018-02-09T14:17:30.659Z,30.87
2018-02-09T14:19:58.111Z,31.60
2018-02-09T14:22:25.600Z,31.30
2018-02-09T14:24:53.053Z,30.33
2018-02-09T14:27:20.696Z,30.80
2018-02-09T14:29:48.149Z,29.83
2018-02-09T14:32:15.679Z,32.00
2018-02-09T14:34:43.939Z,31.17
2018-02-09T14:37:11.497Z,29.93
2018-02-09T14:39:38.952Z,31.13
2018-02-09T14:42:06.411Z,31.53
2018-02-09T14:44:33.871Z,29.60
2018-02-09T14:47:01.364Z,30.27
2018-02-09T14:49:28.847Z,32.03
2018-02-09T14:51:56.331Z,31.17
2018-02-09T14:54:23.887Z,28.60
2018-02-09T14:56:51.399Z,31.40
2018-02-09T14:59:19.741Z,29.83
2018-02-09T15:01:47.711Z,29.03
2018-02-09T15:04:15.154Z,28.00
2018-02-09T15:06:42.736Z,29.43
2018-02-09T15:09:10.191Z,30.00
2018-02-09T15:11:37.658Z,28.30
2018-02-09T15:14:05.199Z,28.03
2018-02-09T15:16:32.701Z,30.20
2018-02-09T15:19:00.939Z,30.23
2018-02-09T15:21:28.424Z,28.50
2018-02-09T15:23:56.771Z,29.67
2018-02-09T15:26:24.286Z,27.80
2018-02-09T15:28:51.734Z,26.80
2018-02-09T15:31:19.244Z,29.07
2018-02-09T15:33:46.704Z,29.37
2018-02-09T15:36:14.185Z,27.97
2018-02-09T15:38:41.647Z,27.77
2018-02-09T15:41:09.892Z,26.03
2018-02-09T15:43:37.428Z,28.90
2018-02-09T15:46:04.859Z,26.90
2018-02-09T15:48:32.351Z,26.07
2018-02-09T15:50:59.825Z,26.70
2018-02-09T15:53:27.316Z,28.80
2018-02-09T15:55:54.766Z,26.70
2018-02-09T15:58:22.245Z,27.23
2018-02-09T16:00:50.508Z,25.00
2018-02-09T16:03:18.779Z,25.60
2018-02-09T16:05:46.236Z,26.37
2018-02-09T16:08:13.740Z,24.07
2018-02-09T16:10:41.219Z,24.77
2018-02-09T16:13:08.708Z,25.07
2018-02-09T16:15:36.222Z,24.93
2018-02-09T16:18:03.747Z,25.90
2018-02-09T16:20:31.297Z,25.13
2018-02-09T16:22:59.559Z,26.23
2018-02-09T16:25:27.040Z,23.63
2018-02-09T16:27:55.313Z,23.90
2018-02-09T16:30:23.565Z,20.90
2018-02-09T16:32:51.040Z,21.37
2018-02-09T16:35:19.322Z,22.23
2018-02-09T16:37:47.550Z,22.20
2018-02-09T16:40:15.058Z,23.30
2018-02-09T16:42:42.571Z,22.33
2018-02-09T16:45:10.032Z,21.83
2018-02-09T16:47:37.510Z,23.00
2018-02-09T16:50:05.356Z,22.73
2018-02-09T16:52:32.835Z,22.40
2018-02-09T16:55:00.469Z,26.57
2018-02-09T16:57:29.402Z,22.27
2018-02-09T16:59:56.887Z,22.63
2018-02-09T17:02:24.379Z,22.37
2018-02-09T17:04:51.876Z,21.57
2018-02-09T17:07:19.465Z,20.27
2018-02-09T17:09:47.853Z,24.00
2018-02-09T17:12:16.202Z,25.03
2018-02-09T17:14:43.678Z,22.90
2018-02-09T17:17:11.934Z,23.23
2018-02-09T17:19:39.403Z,20.23
2018-02-09T17:22:07.498Z,22.20
2018-02-09T17:24:34.993Z,21.67
2018-02-09T17:27:02.595Z,21.63
2018-02-09T17:29:30.166Z,20.90
2018-02-09T17:31:58.489Z,19.30
2018-02-09T17:34:25.992Z,17.50
2018-02-09T17:36:53.564Z,21.67
2018-02-09T17:39:21.884Z,21.33
2018-02-09T17:41:49.354Z,22.23
2018-02-09T17:47:10.888Z,22.37
2018-02-09T17:49:38.384Z,20.00
2018-02-09T17:52:06.313Z,23.50
2018-02-09T17:54:33.822Z,21.60
2018-02-09T17:57:02.461Z,20.20
2018-02-09T17:59:30.207Z,21.10
2018-02-09T18:01:57.823Z,26.10
2018-02-09T18:04:25.389Z,24.73
2018-02-09T18:06:52.918Z,18.90
2018-02-09T18:09:20.576Z,19.67
2018-02-09T18:11:48.062Z,15.93
2018-02-09T18:14:15.571Z,20.57
2018-02-09T18:16:43.030Z,17.30
2018-02-09T18:19:10.589Z,18.33
2018-02-09T18:21:38.202Z,17.63
2018-02-09T18:24:05.682Z,16.17
2018-02-09T18:26:34.127Z,15.13
2018-02-09T18:29:02.267Z,18.23
2018-02-09T18:31:29.730Z,16.40
2018-02-09T18:33:57.465Z,16.40
2018-02-09T18:36:25.720Z,15.10
2018-02-09T18:38:53.995Z,15.90
2018-02-09T18:41:21.555Z,16.13
2018-02-09T18:43:49.827Z,16.10
2018-02-09T18:46:17.639Z,15.83
2018-02-09T18:48:45.255Z,15.47
2018-02-09T18:51:12.851Z,16.07
2018-02-09T18:53:41.150Z,15.50
2018-02-09T18:56:08.673Z,16.20
2018-02-09T18:58:37.142Z,16.83
2018-02-09T19:01:04.592Z,15.30
2018-02-09T19:03:32.335Z,16.20
2018-02-09T19:06:00.049Z,15.90
2018-02-09T19:08:28.331Z,16.70
2018-02-09T19:10:55.907Z,16.83
2018-02-09T19:13:23.375Z,18.27
2018-02-09T19:15:50.980Z,19.67
2018-02-09T19:18:18.487Z,19.87
2018-02-09T19:20:46.010Z,18.23
2018-02-09T19:23:13.450Z,18.00
2018-02-09T19:25:41.169Z,17.30
2018-02-09T19:28:08.696Z,18.27
2018-02-09T19:30:36.207Z,17.87
2018-02-09T19:33:03.699Z,18.20
2018-02-09T19:35:31.208Z,17.43
2018-02-09T19:37:58.763Z,17.13
2018-02-09T19:40:26.243Z,17.03
2018-02-09T19:42:53.730Z,15.87
2018-02-09T19:45:21.210Z,16.93
2018-02-09T19:47:48.769Z,16.80
2018-02-09T19:50:16.365Z,17.60
2018-02-09T19:52:43.875Z,18.20
2018-02-09T20:01:57.885Z,17.20
2018-02-09T20:04:26.168Z,19.13
2018-02-09T20:06:54.438Z,17.93
2018-02-09T20:09:23.090Z,15.80
2018-02-09T20:11:50.558Z,15.30
2018-02-09T20:14:18.085Z,13.90
2018-02-09T20:16:45.554Z,14.40
2018-02-09T20:19:13.027Z,17.43
2018-02-09T20:21:40.587Z,18.37
2018-02-09T20:24:08.129Z,14.97
2018-02-09T20:26:35.825Z,15.30
2018-02-09T20:29:03.324Z,15.33
2018-02-09T20:31:31.138Z,17.80
2018-02-09T20:33:58.616Z,15.47
2018-02-09T20:36:26.897Z,13.87
2018-02-09T20:38:55.126Z,13.10
2018-02-09T20:41:22.706Z,14.10
2018-02-09T20:43:50.335Z,12.73
2018-02-09T20:46:17.811Z,13.00
2018-02-09T20:48:45.281Z,12.97
2018-02-09T20:51:12.742Z,13.67
2018-02-09T20:53:40.313Z,11.20
2018-02-09T20:56:07.775Z,11.23
2018-02-09T20:58:35.237Z,13.00
2018-02-09T21:01:02.679Z,12.80
2018-02-09T21:03:30.156Z,13.37
2018-02-09T21:05:58.428Z,12.97
2018-02-09T21:08:25.960Z,10.90
2018-02-09T21:10:53.443Z,12.37
2018-02-09T21:13:20.991Z,12.90
2018-02-09T21:15:48.471Z,11.70
2018-02-09T21:18:16.803Z,13.17
2018-02-09T21:20:44.558Z,11.60
2018-02-09T21:23:12.022Z,12.10
2018-02-09T21:25:39.704Z,13.00
2018-02-09T21:28:07.274Z,14.23
2018-02-09T21:30:34.731Z,13.67
2018-02-09T21:33:02.418Z,13.60
2018-02-09T21:35:29.902Z,12.73
2018-02-09T21:37:58.171Z,12.80
2018-02-09T21:40:26.402Z,13.50
2018-02-09T21:42:53.895Z,12.03
2018-02-09T21:45:21.516Z,13.33
2018-02-09T21:47:49.255Z,12.63
2018-02-09T21:50:16.783Z,12.90
2018-02-09T21:52:44.383Z,12.20
2018-02-09T21:55:11.833Z,13.70
2018-02-09T21:57:39.337Z,14.93
2018-02-09T22:00:06.809Z,15.40
2018-02-09T22:02:34.258Z,15.33
2018-02-09T22:05:01.748Z,15.90
2018-02-09T22:07:30.002Z,17.70
2018-02-09T22:09:57.459Z,19.53
2018-02-09T22:12:24.899Z,16.17
2018-02-09T22:14:52.393Z,15.60
2018-02-09T22:17:20.656Z,15.97
2018-02-09T22:19:48.926Z,13.20
2018-02-09T22:22:16.393Z,14.43
2018-02-09T22:24:44.615Z,14.37
2018-02-09T22:27:12.123Z,13.37
2018-02-09T22:29:39.584Z,12.40
2018-02-09T22:32:07.037Z,14.07
2018-02-09T22:34:34.877Z,14.10
2018-02-09T22:37:02.359Z,14.40
2018-02-09T22:39:29.841Z,13.10
2018-02-09T22:41:58.104Z,14.40
2018-02-09T22:44:25.639Z,16.13
2018-02-09T22:46:53.119Z,16.30
2018-02-09T22:49:20.579Z,14.73
2018-02-09T22:51:48.133Z,15.20
2018-02-09T22:54:15.787Z,15.07
2018-02-09T22:56:43.376Z,14.20
2018-02-09T22:59:11.612Z,15.50
2018-02-09T23:01:39.081Z,17.20
2018-02-09T23:04:06.563Z,19.33
2018-02-09T23:06:34.828Z,15.90
2018-02-09T23:09:02.344Z,17.70
2018-02-09T23:11:29.879Z,16.40
2018-02-09T23:13:57.382Z,14.27
2018-02-09T23:16:24.885Z,13.20
2018-02-09T23:18:53.163Z,14.80
2018-02-09T23:21:21.631Z,13.90
2018-02-09T23:23:49.152Z,15.13
2018-02-09T23:26:16.620Z,14.00
2018-02-09T23:28:44.117Z,14.30
2018-02-09T23:31:12.352Z,15.50
2018-02-09T23:33:39.867Z,13.47
2018-02-09T23:36:07.319Z,15.30
2018-02-09T23:38:36.818Z,14.20
2018-02-09T23:41:05.044Z,13.90
2018-02-09T23:43:32.539Z,13.93
2018-02-09T23:46:00.029Z,14.10
2018-02-09T23:48:27.525Z,14.57
2018-02-09T23:50:54.968Z,15.43
2018-02-09T23:53:22.491Z,14.20
2018-02-09T23:55:50.713Z,15.33
2018-02-09T23:58:18.182Z,14.13
